sensor_id;sensor_type;location;lat;lon;timestamp;P1;durP1;ratioP1;P2;durP2;ratioP2
43706;SDS011;61348;53.392;-6.248;2023-08-12T00:00:21;13.73;;;3.10;;
43706;SDS011;61348;53.392;-6.248;2023-08-12T00:02:48;13.38;;;2.72;;
43706;SDS011;61348;53.392;-6.248;2023-08-12T00:05:14;16.30;;;3.03;;
43706;SDS011;61348;53.392;-6.248;2023-08-12T00:07:42;17.23;;;4.55;;
43706;SDS011;61348;53.392;-6.248;2023-08-12T00:10:09;13.65;;;3.05;;
43706;SDS011;61348;53.392;-6.248;2023-08-12T00:12:38;15.20;;;2.78;;
43706;SDS011;61348;53.392;-6.248;2023-08-12T00:15:05;18.23;;;2.97;;
43706;SDS011;61348;53.392;-6.248;2023-08-12T00:17:34;16.25;;;2.70;;
43706;SDS011;61348;53.392;-6.248;2023-08-12T00:20:04;8.95;;;2.85;;
43706;SDS011;61348;53.392;-6.248;2023-08-12T00:22:32;20.48;;;2.78;;
43706;SDS011;61348;53.392;-6.248;2023-08-12T00:24:59;13.27;;;3.38;;
43706;SDS011;61348;53.392;-6.248;2023-08-12T00:27:27;17.77;;;3.95;;
43706;SDS011;61348;53.392;-6.248;2023-08-12T00:29:54;11.35;;;3.25;;
43706;SDS011;61348;53.392;-6.248;2023-08-12T00:32:20;17.38;;;2.60;;
43706;SDS011;61348;53.392;-6.248;2023-08-12T00:34:47;11.73;;;3.38;;
43706;SDS011;61348;53.392;-6.248;2023-08-12T00:37:14;21.83;;;3.60;;
43706;SDS011;61348;53.392;-6.248;2023-08-12T00:39:41;13.07;;;3.92;;
43706;SDS011;61348;53.392;-6.248;2023-08-12T00:42:08;21.17;;;4.88;;
43706;SDS011;61348;53.392;-6.248;2023-08-12T00:44:35;11.88;;;2.60;;
43706;SDS011;61348;53.392;-6.248;2023-08-12T00:47:01;11.63;;;2.00;;
43706;SDS011;61348;53.392;-6.248;2023-08-12T00:49:29;10.27;;;2.35;;
43706;SDS011;61348;53.392;-6.248;2023-08-12T00:51:59;12.18;;;2.10;;
43706;SDS011;61348;53.392;-6.248;2023-08-12T00:54:27;8.75;;;2.53;;
43706;SDS011;61348;53.392;-6.248;2023-08-12T00:56:54;8.52;;;1.98;;
43706;SDS011;61348;53.392;-6.248;2023-08-12T00:59:21;17.60;;;4.88;;
43706;SDS011;61348;53.392;-6.248;2023-08-12T01:01:49;16.50;;;4.28;;
43706;SDS011;61348;53.392;-6.248;2023-08-12T01:04:16;14.07;;;2.65;;
43706;SDS011;61348;53.392;-6.248;2023-08-12T01:06:48;12.93;;;2.97;;
43706;SDS011;61348;53.392;-6.248;2023-08-12T01:09:14;9.73;;;4.07;;
43706;SDS011;61348;53.392;-6.248;2023-08-12T01:11:57;12.35;;;2.45;;
43706;SDS011;61348;53.392;-6.248;2023-08-12T01:17:05;11.15;;;2.35;;
43706;SDS011;61348;53.392;-6.248;2023-08-12T01:19:36;14.82;;;3.83;;
43706;SDS011;61348;53.392;-6.248;2023-08-12T01:22:08;18.88;;;4.28;;
43706;SDS011;61348;53.392;-6.248;2023-08-12T01:24:37;11.32;;;3.28;;
43706;SDS011;61348;53.392;-6.248;2023-08-12T01:27:06;9.70;;;2.72;;
43706;SDS011;61348;53.392;-6.248;2023-08-12T01:29:38;10.38;;;2.70;;
43706;SDS011;61348;53.392;-6.248;2023-08-12T01:32:13;10.40;;;2.55;;
43706;SDS011;61348;53.392;-6.248;2023-08-12T01:34:47;13.40;;;2.92;;
43706;SDS011;61348;53.392;-6.248;2023-08-12T01:37:23;15.27;;;3.58;;
43706;SDS011;61348;53.392;-6.248;2023-08-12T01:39:53;15.43;;;2.55;;
43706;SDS011;61348;53.392;-6.248;2023-08-12T01:42:23;13.27;;;2.40;;
43706;SDS011;61348;53.392;-6.248;2023-08-12T01:44:51;10.68;;;2.60;;
43706;SDS011;61348;53.392;-6.248;2023-08-12T01:47:18;11.82;;;2.72;;
43706;SDS011;61348;53.392;-6.248;2023-08-12T01:49:45;20.13;;;2.38;;
43706;SDS011;61348;53.392;-6.248;2023-08-12T01:52:12;14.93;;;2.50;;
43706;SDS011;61348;53.392;-6.248;2023-08-12T01:54:39;13.52;;;2.55;;
43706;SDS011;61348;53.392;-6.248;2023-08-12T01:57:06;14.40;;;2.95;;
43706;SDS011;61348;53.392;-6.248;2023-08-12T01:59:35;10.05;;;1.95;;
43706;SDS011;61348;53.392;-6.248;2023-08-12T02:02:02;15.30;;;3.58;;
43706;SDS011;61348;53.392;-6.248;2023-08-12T02:04:29;9.82;;;2.30;;
43706;SDS011;61348;53.392;-6.248;2023-08-12T02:06:57;7.38;;;1.83;;
43706;SDS011;61348;53.392;-6.248;2023-08-12T02:09:23;4.45;;;1.58;;
43706;SDS011;61348;53.392;-6.248;2023-08-12T02:11:50;8.18;;;2.40;;
43706;SDS011;61348;53.392;-6.248;2023-08-12T02:14:18;8.00;;;2.40;;
43706;SDS011;61348;53.392;-6.248;2023-08-12T02:16:45;11.20;;;1.70;;
43706;SDS011;61348;53.392;-6.248;2023-08-12T02:19:12;11.27;;;1.90;;
43706;SDS011;61348;53.392;-6.248;2023-08-12T02:21:39;6.20;;;1.90;;
43706;SDS011;61348;53.392;-6.248;2023-08-12T02:24:06;5.00;;;1.35;;
43706;SDS011;61348;53.392;-6.248;2023-08-12T02:26:33;5.50;;;1.42;;
43706;SDS011;61348;53.392;-6.248;2023-08-12T02:29:00;11.85;;;1.38;;
43706;SDS011;61348;53.392;-6.248;2023-08-12T02:31:27;3.85;;;1.10;;
43706;SDS011;61348;53.392;-6.248;2023-08-12T02:33:53;4.18;;;0.93;;
43706;SDS011;61348;53.392;-6.248;2023-08-12T02:36:21;5.70;;;1.60;;
43706;SDS011;61348;53.392;-6.248;2023-08-12T02:38:48;5.60;;;1.10;;
43706;SDS011;61348;53.392;-6.248;2023-08-12T02:41:15;3.65;;;1.00;;
43706;SDS011;61348;53.392;-6.248;2023-08-12T02:43:43;6.75;;;1.20;;
43706;SDS011;61348;53.392;-6.248;2023-08-12T02:46:10;5.63;;;0.90;;
43706;SDS011;61348;53.392;-6.248;2023-08-12T02:48:37;6.18;;;1.33;;
43706;SDS011;61348;53.392;-6.248;2023-08-12T02:51:04;8.95;;;2.63;;
43706;SDS011;61348;53.392;-6.248;2023-08-12T02:53:31;6.85;;;1.10;;
43706;SDS011;61348;53.392;-6.248;2023-08-12T02:55:58;5.38;;;1.17;;
43706;SDS011;61348;53.392;-6.248;2023-08-12T02:58:24;6.32;;;1.20;;
43706;SDS011;61348;53.392;-6.248;2023-08-12T03:00:54;2.10;;;0.77;;
43706;SDS011;61348;53.392;-6.248;2023-08-12T03:03:21;7.10;;;1.45;;
43706;SDS011;61348;53.392;-6.248;2023-08-12T03:05:48;5.03;;;0.88;;
43706;SDS011;61348;53.392;-6.248;2023-08-12T03:08:16;8.95;;;1.60;;
43706;SDS011;61348;53.392;-6.248;2023-08-12T03:10:45;2.85;;;1.35;;
43706;SDS011;61348;53.392;-6.248;2023-08-12T03:13:12;6.88;;;1.25;;
43706;SDS011;61348;53.392;-6.248;2023-08-12T03:15:39;5.13;;;1.20;;
43706;SDS011;61348;53.392;-6.248;2023-08-12T03:18:06;6.97;;;1.40;;
43706;SDS011;61348;53.392;-6.248;2023-08-12T03:20:33;7.28;;;1.27;;
43706;SDS011;61348;53.392;-6.248;2023-08-12T03:23:00;6.43;;;1.38;;
43706;SDS011;61348;53.392;-6.248;2023-08-12T03:25:27;9.20;;;1.70;;
43706;SDS011;61348;53.392;-6.248;2023-08-12T03:27:54;3.92;;;1.10;;
43706;SDS011;61348;53.392;-6.248;2023-08-12T03:30:20;5.22;;;1.67;;
43706;SDS011;61348;53.392;-6.248;2023-08-12T03:32:47;9.40;;;1.75;;
43706;SDS011;61348;53.392;-6.248;2023-08-12T03:35:14;9.52;;;1.52;;
43706;SDS011;61348;53.392;-6.248;2023-08-12T03:37:45;7.32;;;1.23;;
43706;SDS011;61348;53.392;-6.248;2023-08-12T03:40:12;5.60;;;2.30;;
43706;SDS011;61348;53.392;-6.248;2023-08-12T03:42:39;3.05;;;1.00;;
43706;SDS011;61348;53.392;-6.248;2023-08-12T03:45:06;8.65;;;2.05;;
43706;SDS011;61348;53.392;-6.248;2023-08-12T03:47:33;5.28;;;1.42;;
43706;SDS011;61348;53.392;-6.248;2023-08-12T03:50:00;5.03;;;1.23;;
43706;SDS011;61348;53.392;-6.248;2023-08-12T03:52:27;7.25;;;2.05;;
43706;SDS011;61348;53.392;-6.248;2023-08-12T03:54:53;7.38;;;1.95;;
43706;SDS011;61348;53.392;-6.248;2023-08-12T03:57:20;2.45;;;1.02;;
43706;SDS011;61348;53.392;-6.248;2023-08-12T03:59:47;6.57;;;1.45;;
43706;SDS011;61348;53.392;-6.248;2023-08-12T04:02:14;9.23;;;0.90;;
43706;SDS011;61348;53.392;-6.248;2023-08-12T04:04:41;7.45;;;2.47;;
43706;SDS011;61348;53.392;-6.248;2023-08-12T04:07:10;6.43;;;1.15;;
43706;SDS011;61348;53.392;-6.248;2023-08-12T04:09:37;5.70;;;1.02;;
43706;SDS011;61348;53.392;-6.248;2023-08-12T04:12:04;7.82;;;1.40;;
43706;SDS011;61348;53.392;-6.248;2023-08-12T04:14:31;8.65;;;2.55;;
43706;SDS011;61348;53.392;-6.248;2023-08-12T04:16:58;5.43;;;1.92;;
43706;SDS011;61348;53.392;-6.248;2023-08-12T04:19:25;4.50;;;1.10;;
43706;SDS011;61348;53.392;-6.248;2023-08-12T04:21:52;4.20;;;1.15;;
43706;SDS011;61348;53.392;-6.248;2023-08-12T04:24:18;3.75;;;0.98;;
43706;SDS011;61348;53.392;-6.248;2023-08-12T04:26:45;7.50;;;1.10;;
43706;SDS011;61348;53.392;-6.248;2023-08-12T04:29:12;7.82;;;1.30;;
43706;SDS011;61348;53.392;-6.248;2023-08-12T04:31:40;6.15;;;1.20;;
43706;SDS011;61348;53.392;-6.248;2023-08-12T04:34:07;9.85;;;1.85;;
43706;SDS011;61348;53.392;-6.248;2023-08-12T04:36:33;7.35;;;1.23;;
43706;SDS011;61348;53.392;-6.248;2023-08-12T04:39:01;9.25;;;1.00;;
43706;SDS011;61348;53.392;-6.248;2023-08-12T04:41:28;6.32;;;1.90;;
43706;SDS011;61348;53.392;-6.248;2023-08-12T04:43:55;4.63;;;1.30;;
43706;SDS011;61348;53.392;-6.248;2023-08-12T04:46:22;5.22;;;1.00;;
43706;SDS011;61348;53.392;-6.248;2023-08-12T04:48:49;5.90;;;1.58;;
43706;SDS011;61348;53.392;-6.248;2023-08-12T04:51:16;4.10;;;0.90;;
43706;SDS011;61348;53.392;-6.248;2023-08-12T04:53:43;6.30;;;1.10;;
43706;SDS011;61348;53.392;-6.248;2023-08-12T04:56:10;2.72;;;0.98;;
43706;SDS011;61348;53.392;-6.248;2023-08-12T04:58:36;5.82;;;1.02;;
43706;SDS011;61348;53.392;-6.248;2023-08-12T05:01:03;5.63;;;0.95;;
43706;SDS011;61348;53.392;-6.248;2023-08-12T05:03:30;5.53;;;1.23;;
43706;SDS011;61348;53.392;-6.248;2023-08-12T05:05:57;5.07;;;1.38;;
43706;SDS011;61348;53.392;-6.248;2023-08-12T05:08:24;6.10;;;1.40;;
43706;SDS011;61348;53.392;-6.248;2023-08-12T05:10:50;8.75;;;2.05;;
43706;SDS011;61348;53.392;-6.248;2023-08-12T05:13:17;3.55;;;1.20;;
43706;SDS011;61348;53.392;-6.248;2023-08-12T05:15:45;5.05;;;1.17;;
43706;SDS011;61348;53.392;-6.248;2023-08-12T05:18:13;6.63;;;1.73;;
43706;SDS011;61348;53.392;-6.248;2023-08-12T05:20:40;8.23;;;1.70;;
43706;SDS011;61348;53.392;-6.248;2023-08-12T05:23:12;10.55;;;1.55;;
43706;SDS011;61348;53.392;-6.248;2023-08-12T05:25:39;3.08;;;0.95;;
43706;SDS011;61348;53.392;-6.248;2023-08-12T05:28:07;5.15;;;0.98;;
43706;SDS011;61348;53.392;-6.248;2023-08-12T05:30:34;7.63;;;1.15;;
43706;SDS011;61348;53.392;-6.248;2023-08-12T05:33:02;5.18;;;1.17;;
43706;SDS011;61348;53.392;-6.248;2023-08-12T05:35:32;4.93;;;1.38;;
43706;SDS011;61348;53.392;-6.248;2023-08-12T05:38:02;5.30;;;1.05;;
43706;SDS011;61348;53.392;-6.248;2023-08-12T05:40:29;10.52;;;3.15;;
43706;SDS011;61348;53.392;-6.248;2023-08-12T05:42:56;4.50;;;0.98;;
43706;SDS011;61348;53.392;-6.248;2023-08-12T05:45:23;7.50;;;1.55;;
43706;SDS011;61348;53.392;-6.248;2023-08-12T05:47:50;5.63;;;0.93;;
43706;SDS011;61348;53.392;-6.248;2023-08-12T05:50:16;5.78;;;1.40;;
43706;SDS011;61348;53.392;-6.248;2023-08-12T05:52:43;6.53;;;0.93;;
43706;SDS011;61348;53.392;-6.248;2023-08-12T05:55:10;4.20;;;1.00;;
43706;SDS011;61348;53.392;-6.248;2023-08-12T05:57:37;6.50;;;1.02;;
43706;SDS011;61348;53.392;-6.248;2023-08-12T06:00:04;6.30;;;1.27;;
43706;SDS011;61348;53.392;-6.248;2023-08-12T06:02:32;4.82;;;0.90;;
43706;SDS011;61348;53.392;-6.248;2023-08-12T06:04:59;4.85;;;1.00;;
43706;SDS011;61348;53.392;-6.248;2023-08-12T06:07:25;3.88;;;0.80;;
43706;SDS011;61348;53.392;-6.248;2023-08-12T06:09:52;5.45;;;1.40;;
43706;SDS011;61348;53.392;-6.248;2023-08-12T06:12:19;4.90;;;0.80;;
43706;SDS011;61348;53.392;-6.248;2023-08-12T06:14:46;7.95;;;1.48;;
43706;SDS011;61348;53.392;-6.248;2023-08-12T06:17:12;4.63;;;1.08;;
43706;SDS011;61348;53.392;-6.248;2023-08-12T06:19:39;5.47;;;1.08;;
43706;SDS011;61348;53.392;-6.248;2023-08-12T06:22:06;2.38;;;1.15;;
43706;SDS011;61348;53.392;-6.248;2023-08-12T06:24:33;4.28;;;0.52;;
43706;SDS011;61348;53.392;-6.248;2023-08-12T06:27:07;7.10;;;0.95;;
43706;SDS011;61348;53.392;-6.248;2023-08-12T06:29:34;8.23;;;1.20;;
43706;SDS011;61348;53.392;-6.248;2023-08-12T06:32:01;4.72;;;1.05;;
43706;SDS011;61348;53.392;-6.248;2023-08-12T06:34:27;6.03;;;1.10;;
43706;SDS011;61348;53.392;-6.248;2023-08-12T06:36:54;3.72;;;1.20;;
43706;SDS011;61348;53.392;-6.248;2023-08-12T06:39:21;5.40;;;2.13;;
43706;SDS011;61348;53.392;-6.248;2023-08-12T06:41:48;2.83;;;1.20;;
43706;SDS011;61348;53.392;-6.248;2023-08-12T06:44:15;7.78;;;1.48;;
43706;SDS011;61348;53.392;-6.248;2023-08-12T06:46:41;6.00;;;1.88;;
43706;SDS011;61348;53.392;-6.248;2023-08-12T06:49:08;4.40;;;0.90;;
43706;SDS011;61348;53.392;-6.248;2023-08-12T06:51:35;2.65;;;0.77;;
43706;SDS011;61348;53.392;-6.248;2023-08-12T06:54:02;4.55;;;0.90;;
43706;SDS011;61348;53.392;-6.248;2023-08-12T06:56:29;6.03;;;0.90;;
43706;SDS011;61348;53.392;-6.248;2023-08-12T06:58:55;6.32;;;1.10;;
43706;SDS011;61348;53.392;-6.248;2023-08-12T07:01:22;4.72;;;1.00;;
43706;SDS011;61348;53.392;-6.248;2023-08-12T07:03:49;5.38;;;1.35;;
43706;SDS011;61348;53.392;-6.248;2023-08-12T07:06:16;4.57;;;1.02;;
43706;SDS011;61348;53.392;-6.248;2023-08-12T07:08:42;3.75;;;0.95;;
43706;SDS011;61348;53.392;-6.248;2023-08-12T07:11:09;2.97;;;0.80;;
43706;SDS011;61348;53.392;-6.248;2023-08-12T07:13:36;3.97;;;1.17;;
43706;SDS011;61348;53.392;-6.248;2023-08-12T07:16:03;5.55;;;1.40;;
43706;SDS011;61348;53.392;-6.248;2023-08-12T07:18:30;2.30;;;0.70;;
43706;SDS011;61348;53.392;-6.248;2023-08-12T07:20:57;3.05;;;0.80;;
43706;SDS011;61348;53.392;-6.248;2023-08-12T07:23:26;3.25;;;0.98;;
43706;SDS011;61348;53.392;-6.248;2023-08-12T07:25:53;3.17;;;1.15;;
43706;SDS011;61348;53.392;-6.248;2023-08-12T07:28:20;4.93;;;0.93;;
43706;SDS011;61348;53.392;-6.248;2023-08-12T07:30:48;6.22;;;0.85;;
43706;SDS011;61348;53.392;-6.248;2023-08-12T07:33:15;4.18;;;0.93;;
43706;SDS011;61348;53.392;-6.248;2023-08-12T07:35:42;2.13;;;0.68;;
43706;SDS011;61348;53.392;-6.248;2023-08-12T07:38:09;4.22;;;0.60;;
43706;SDS011;61348;53.392;-6.248;2023-08-12T07:40:36;0.70;;;0.32;;
43706;SDS011;61348;53.392;-6.248;2023-08-12T07:43:07;3.85;;;0.70;;
43706;SDS011;61348;53.392;-6.248;2023-08-12T07:45:33;4.35;;;0.85;;
43706;SDS011;61348;53.392;-6.248;2023-08-12T07:48:00;1.90;;;0.65;;
43706;SDS011;61348;53.392;-6.248;2023-08-12T07:50:27;3.78;;;0.88;;
43706;SDS011;61348;53.392;-6.248;2023-08-12T07:52:54;2.95;;;0.28;;
43706;SDS011;61348;53.392;-6.248;2023-08-12T07:55:21;2.40;;;0.70;;
43706;SDS011;61348;53.392;-6.248;2023-08-12T07:57:52;5.38;;;0.52;;
43706;SDS011;61348;53.392;-6.248;2023-08-12T08:00:19;2.47;;;0.60;;
43706;SDS011;61348;53.392;-6.248;2023-08-12T08:02:46;2.58;;;0.68;;
43706;SDS011;61348;53.392;-6.248;2023-08-12T08:05:12;1.38;;;0.40;;
43706;SDS011;61348;53.392;-6.248;2023-08-12T08:07:39;2.40;;;0.50;;
43706;SDS011;61348;53.392;-6.248;2023-08-12T08:10:07;0.65;;;0.40;;
43706;SDS011;61348;53.392;-6.248;2023-08-12T08:12:34;1.38;;;0.25;;
43706;SDS011;61348;53.392;-6.248;2023-08-12T08:15:00;1.35;;;0.43;;
43706;SDS011;61348;53.392;-6.248;2023-08-12T08:17:29;1.63;;;0.47;;
43706;SDS011;61348;53.392;-6.248;2023-08-12T08:19:59;2.35;;;0.30;;
43706;SDS011;61348;53.392;-6.248;2023-08-12T08:22:27;5.88;;;0.55;;
43706;SDS011;61348;53.392;-6.248;2023-08-12T08:24:56;3.08;;;0.80;;
43706;SDS011;61348;53.392;-6.248;2023-08-12T08:27:23;5.20;;;1.77;;
43706;SDS011;61348;53.392;-6.248;2023-08-12T08:29:50;1.90;;;0.30;;
43706;SDS011;61348;53.392;-6.248;2023-08-12T08:32:17;1.25;;;0.35;;
43706;SDS011;61348;53.392;-6.248;2023-08-12T08:34:45;2.58;;;0.30;;
43706;SDS011;61348;53.392;-6.248;2023-08-12T08:37:12;2.10;;;0.77;;
43706;SDS011;61348;53.392;-6.248;2023-08-12T08:39:38;1.95;;;0.43;;
43706;SDS011;61348;53.392;-6.248;2023-08-12T08:42:05;2.40;;;0.50;;
43706;SDS011;61348;53.392;-6.248;2023-08-12T08:44:33;2.13;;;0.50;;
43706;SDS011;61348;53.392;-6.248;2023-08-12T08:47:01;1.98;;;0.50;;
43706;SDS011;61348;53.392;-6.248;2023-08-12T08:49:29;2.58;;;0.60;;
43706;SDS011;61348;53.392;-6.248;2023-08-12T08:51:58;2.15;;;1.50;;
43706;SDS011;61348;53.392;-6.248;2023-08-12T08:54:26;0.85;;;0.60;;
43706;SDS011;61348;53.392;-6.248;2023-08-12T08:56:54;1.38;;;0.35;;
43706;SDS011;61348;53.392;-6.248;2023-08-12T08:59:34;2.78;;;0.70;;
43706;SDS011;61348;53.392;-6.248;2023-08-12T09:02:00;0.40;;;0.30;;
43706;SDS011;61348;53.392;-6.248;2023-08-12T09:04:28;1.85;;;0.35;;
43706;SDS011;61348;53.392;-6.248;2023-08-12T09:06:55;2.22;;;0.47;;
43706;SDS011;61348;53.392;-6.248;2023-08-12T09:09:23;2.58;;;0.40;;
43706;SDS011;61348;53.392;-6.248;2023-08-12T09:11:51;1.42;;;0.35;;
43706;SDS011;61348;53.392;-6.248;2023-08-12T09:14:19;1.95;;;0.50;;
43706;SDS011;61348;53.392;-6.248;2023-08-12T09:16:47;0.98;;;0.55;;
43706;SDS011;61348;53.392;-6.248;2023-08-12T09:19:13;0.98;;;0.28;;
43706;SDS011;61348;53.392;-6.248;2023-08-12T09:21:41;1.13;;;0.30;;
43706;SDS011;61348;53.392;-6.248;2023-08-12T09:24:08;1.85;;;0.50;;
43706;SDS011;61348;53.392;-6.248;2023-08-12T09:26:35;1.58;;;0.20;;
43706;SDS011;61348;53.392;-6.248;2023-08-12T09:29:02;0.82;;;0.20;;
43706;SDS011;61348;53.392;-6.248;2023-08-12T09:31:30;2.05;;;0.38;;
43706;SDS011;61348;53.392;-6.248;2023-08-12T09:34:04;1.05;;;0.40;;
43706;SDS011;61348;53.392;-6.248;2023-08-12T09:36:33;2.00;;;0.52;;
43706;SDS011;61348;53.392;-6.248;2023-08-12T09:39:05;1.17;;;0.30;;
43706;SDS011;61348;53.392;-6.248;2023-08-12T09:41:36;2.13;;;0.70;;
43706;SDS011;61348;53.392;-6.248;2023-08-12T09:44:04;1.35;;;0.30;;
43706;SDS011;61348;53.392;-6.248;2023-08-12T09:46:34;1.48;;;0.22;;
43706;SDS011;61348;53.392;-6.248;2023-08-12T09:49:01;2.67;;;0.35;;
43706;SDS011;61348;53.392;-6.248;2023-08-12T09:51:35;0.47;;;0.30;;
43706;SDS011;61348;53.392;-6.248;2023-08-12T09:54:03;1.50;;;0.20;;
43706;SDS011;61348;53.392;-6.248;2023-08-12T09:56:32;3.20;;;0.45;;
43706;SDS011;61348;53.392;-6.248;2023-08-12T09:59:03;2.13;;;0.40;;
43706;SDS011;61348;53.392;-6.248;2023-08-12T10:01:33;1.38;;;0.60;;
43706;SDS011;61348;53.392;-6.248;2023-08-12T10:04:01;2.08;;;0.22;;
43706;SDS011;61348;53.392;-6.248;2023-08-12T10:06:32;0.82;;;0.32;;
43706;SDS011;61348;53.392;-6.248;2023-08-12T10:08:59;1.20;;;0.40;;
43706;SDS011;61348;53.392;-6.248;2023-08-12T10:11:27;0.63;;;0.20;;
43706;SDS011;61348;53.392;-6.248;2023-08-12T10:13:54;2.35;;;0.55;;
43706;SDS011;61348;53.392;-6.248;2023-08-12T10:16:23;1.95;;;0.40;;
43706;SDS011;61348;53.392;-6.248;2023-08-12T10:18:50;1.88;;;0.60;;
43706;SDS011;61348;53.392;-6.248;2023-08-12T10:21:19;1.85;;;0.55;;
43706;SDS011;61348;53.392;-6.248;2023-08-12T10:23:47;2.33;;;0.43;;
43706;SDS011;61348;53.392;-6.248;2023-08-12T10:26:17;1.77;;;0.32;;
43706;SDS011;61348;53.392;-6.248;2023-08-12T10:28:44;3.10;;;0.47;;
43706;SDS011;61348;53.392;-6.248;2023-08-12T10:31:11;1.48;;;0.40;;
43706;SDS011;61348;53.392;-6.248;2023-08-12T10:33:38;2.78;;;0.47;;
43706;SDS011;61348;53.392;-6.248;2023-08-12T10:36:06;2.33;;;0.45;;
43706;SDS011;61348;53.392;-6.248;2023-08-12T10:38:34;1.90;;;0.57;;
43706;SDS011;61348;53.392;-6.248;2023-08-12T10:41:17;1.55;;;0.40;;
43706;SDS011;61348;53.392;-6.248;2023-08-12T10:49:07;2.45;;;0.47;;
43706;SDS011;61348;53.392;-6.248;2023-08-12T10:51:45;3.70;;;0.57;;
43706;SDS011;61348;53.392;-6.248;2023-08-12T10:54:28;1.67;;;0.50;;
43706;SDS011;61348;53.392;-6.248;2023-08-12T10:57:04;1.45;;;0.60;;
43706;SDS011;61348;53.392;-6.248;2023-08-12T11:02:19;2.38;;;0.70;;
43706;SDS011;61348;53.392;-6.248;2023-08-12T11:04:56;2.10;;;0.45;;
43706;SDS011;61348;53.392;-6.248;2023-08-12T11:07:28;0.95;;;0.28;;
43706;SDS011;61348;53.392;-6.248;2023-08-12T11:09:58;3.03;;;0.60;;
43706;SDS011;61348;53.392;-6.248;2023-08-12T11:12:28;2.95;;;0.60;;
43706;SDS011;61348;53.392;-6.248;2023-08-12T11:15:05;3.67;;;0.85;;
43706;SDS011;61348;53.392;-6.248;2023-08-12T11:17:33;3.75;;;0.52;;
43706;SDS011;61348;53.392;-6.248;2023-08-12T11:20:03;3.03;;;0.75;;
43706;SDS011;61348;53.392;-6.248;2023-08-12T11:22:34;1.55;;;0.57;;
43706;SDS011;61348;53.392;-6.248;2023-08-12T11:25:06;2.95;;;0.70;;
43706;SDS011;61348;53.392;-6.248;2023-08-12T11:27:36;1.80;;;0.68;;
43706;SDS011;61348;53.392;-6.248;2023-08-12T11:30:13;1.70;;;0.82;;
43706;SDS011;61348;53.392;-6.248;2023-08-12T11:32:43;1.90;;;0.60;;
43706;SDS011;61348;53.392;-6.248;2023-08-12T11:35:12;0.40;;;0.25;;
43706;SDS011;61348;53.392;-6.248;2023-08-12T11:37:41;4.70;;;0.60;;
43706;SDS011;61348;53.392;-6.248;2023-08-12T11:40:12;2.08;;;0.63;;
43706;SDS011;61348;53.392;-6.248;2023-08-12T11:45:11;4.28;;;0.75;;
43706;SDS011;61348;53.392;-6.248;2023-08-12T11:47:39;1.02;;;0.47;;
43706;SDS011;61348;53.392;-6.248;2023-08-12T11:50:10;1.05;;;0.50;;
43706;SDS011;61348;53.392;-6.248;2023-08-12T11:52:39;6.55;;;0.88;;
43706;SDS011;61348;53.392;-6.248;2023-08-12T11:55:06;1.77;;;0.70;;
43706;SDS011;61348;53.392;-6.248;2023-08-12T11:57:34;2.28;;;0.73;;
43706;SDS011;61348;53.392;-6.248;2023-08-12T12:00:01;2.85;;;0.93;;
43706;SDS011;61348;53.392;-6.248;2023-08-12T12:02:35;2.80;;;0.50;;
43706;SDS011;61348;53.392;-6.248;2023-08-12T12:05:07;4.50;;;0.63;;
43706;SDS011;61348;53.392;-6.248;2023-08-12T12:07:37;2.00;;;0.52;;
43706;SDS011;61348;53.392;-6.248;2023-08-12T12:10:05;2.67;;;0.47;;
43706;SDS011;61348;53.392;-6.248;2023-08-12T12:12:33;2.70;;;0.50;;
43706;SDS011;61348;53.392;-6.248;2023-08-12T12:15:03;2.00;;;0.20;;
43706;SDS011;61348;53.392;-6.248;2023-08-12T12:17:31;1.60;;;0.38;;
43706;SDS011;61348;53.392;-6.248;2023-08-12T12:20:00;2.08;;;0.68;;
43706;SDS011;61348;53.392;-6.248;2023-08-12T12:22:31;1.58;;;0.63;;
43706;SDS011;61348;53.392;-6.248;2023-08-12T12:25:05;2.90;;;0.70;;
43706;SDS011;61348;53.392;-6.248;2023-08-12T12:27:35;3.40;;;0.45;;
43706;SDS011;61348;53.392;-6.248;2023-08-12T12:30:07;1.77;;;0.40;;
43706;SDS011;61348;53.392;-6.248;2023-08-12T12:32:35;1.33;;;0.55;;
43706;SDS011;61348;53.392;-6.248;2023-08-12T12:35:03;5.38;;;0.47;;
43706;SDS011;61348;53.392;-6.248;2023-08-12T12:37:30;2.60;;;0.40;;
43706;SDS011;61348;53.392;-6.248;2023-08-12T12:39:57;2.38;;;0.50;;
43706;SDS011;61348;53.392;-6.248;2023-08-12T12:42:23;1.55;;;0.63;;
43706;SDS011;61348;53.392;-6.248;2023-08-12T12:44:50;1.55;;;0.40;;
43706;SDS011;61348;53.392;-6.248;2023-08-12T12:47:19;3.40;;;1.25;;
43706;SDS011;61348;53.392;-6.248;2023-08-12T12:49:46;1.02;;;0.40;;
43706;SDS011;61348;53.392;-6.248;2023-08-12T12:52:15;4.28;;;0.70;;
43706;SDS011;61348;53.392;-6.248;2023-08-12T12:54:42;2.80;;;0.52;;
43706;SDS011;61348;53.392;-6.248;2023-08-12T12:57:10;1.38;;;0.40;;
43706;SDS011;61348;53.392;-6.248;2023-08-12T12:59:39;1.70;;;0.50;;
43706;SDS011;61348;53.392;-6.248;2023-08-12T13:02:06;2.33;;;0.50;;
43706;SDS011;61348;53.392;-6.248;2023-08-12T13:04:33;2.33;;;0.45;;
43706;SDS011;61348;53.392;-6.248;2023-08-12T13:07:00;3.22;;;0.68;;
43706;SDS011;61348;53.392;-6.248;2023-08-12T13:09:27;1.42;;;0.50;;
43706;SDS011;61348;53.392;-6.248;2023-08-12T13:11:53;1.48;;;0.60;;
43706;SDS011;61348;53.392;-6.248;2023-08-12T13:14:23;2.28;;;0.47;;
43706;SDS011;61348;53.392;-6.248;2023-08-12T13:16:50;1.95;;;0.55;;
43706;SDS011;61348;53.392;-6.248;2023-08-12T13:19:18;1.67;;;0.82;;
43706;SDS011;61348;53.392;-6.248;2023-08-12T13:21:45;3.88;;;1.17;;
43706;SDS011;61348;53.392;-6.248;2023-08-12T13:24:11;4.80;;;1.30;;
43706;SDS011;61348;53.392;-6.248;2023-08-12T13:26:38;2.78;;;0.80;;
43706;SDS011;61348;53.392;-6.248;2023-08-12T13:29:05;1.90;;;1.00;;
43706;SDS011;61348;53.392;-6.248;2023-08-12T13:31:32;3.13;;;1.58;;
43706;SDS011;61348;53.392;-6.248;2023-08-12T13:33:59;1.25;;;0.50;;
43706;SDS011;61348;53.392;-6.248;2023-08-12T13:36:26;1.73;;;0.40;;
43706;SDS011;61348;53.392;-6.248;2023-08-12T13:38:53;3.13;;;0.32;;
43706;SDS011;61348;53.392;-6.248;2023-08-12T13:41:20;0.65;;;0.40;;
43706;SDS011;61348;53.392;-6.248;2023-08-12T13:43:47;4.15;;;0.40;;
43706;SDS011;61348;53.392;-6.248;2023-08-12T13:46:14;2.92;;;0.70;;
43706;SDS011;61348;53.392;-6.248;2023-08-12T13:48:41;1.10;;;0.25;;
43706;SDS011;61348;53.392;-6.248;2023-08-12T13:51:08;1.95;;;0.50;;
43706;SDS011;61348;53.392;-6.248;2023-08-12T13:53:36;1.48;;;0.55;;
43706;SDS011;61348;53.392;-6.248;2023-08-12T13:56:02;1.60;;;0.50;;
43706;SDS011;61348;53.392;-6.248;2023-08-12T13:58:30;3.30;;;0.40;;
43706;SDS011;61348;53.392;-6.248;2023-08-12T14:00:57;0.90;;;0.40;;
43706;SDS011;61348;53.392;-6.248;2023-08-12T14:03:24;1.95;;;0.43;;
43706;SDS011;61348;53.392;-6.248;2023-08-12T14:05:51;1.77;;;0.20;;
43706;SDS011;61348;53.392;-6.248;2023-08-12T14:08:18;1.65;;;0.30;;
43706;SDS011;61348;53.392;-6.248;2023-08-12T14:10:45;1.38;;;0.60;;
43706;SDS011;61348;53.392;-6.248;2023-08-12T14:13:13;0.88;;;0.30;;
43706;SDS011;61348;53.392;-6.248;2023-08-12T14:15:40;0.90;;;0.77;;
43706;SDS011;61348;53.392;-6.248;2023-08-12T14:18:07;0.73;;;0.68;;
43706;SDS011;61348;53.392;-6.248;2023-08-12T14:20:34;5.30;;;1.05;;
43706;SDS011;61348;53.392;-6.248;2023-08-12T14:23:01;1.15;;;0.50;;
43706;SDS011;61348;53.392;-6.248;2023-08-12T14:25:28;3.15;;;0.40;;
43706;SDS011;61348;53.392;-6.248;2023-08-12T14:27:56;2.92;;;0.60;;
43706;SDS011;61348;53.392;-6.248;2023-08-12T14:30:23;2.20;;;1.00;;
43706;SDS011;61348;53.392;-6.248;2023-08-12T14:32:54;3.28;;;0.52;;
43706;SDS011;61348;53.392;-6.248;2023-08-12T14:35:21;1.05;;;0.40;;
43706;SDS011;61348;53.392;-6.248;2023-08-12T14:37:48;3.38;;;1.15;;
43706;SDS011;61348;53.392;-6.248;2023-08-12T14:40:15;2.50;;;0.47;;
43706;SDS011;61348;53.392;-6.248;2023-08-12T14:42:41;0.88;;;0.40;;
43706;SDS011;61348;53.392;-6.248;2023-08-12T14:45:10;3.22;;;0.50;;
43706;SDS011;61348;53.392;-6.248;2023-08-12T14:47:37;2.25;;;0.60;;
43706;SDS011;61348;53.392;-6.248;2023-08-12T14:50:04;3.47;;;0.45;;